Weather at Hokkaido University Yubari River Gliderport

Public forecast

Using degrees Celsius for public forecast. Weather courtesy of forecast.io.

Closest aviation weather report (METAR) to Hokkaido University Yubari River Gliderport

Closest report is Sapporo Okadama Airport, 10.8 nm (20.0 km) W. Retrieved 2021/02/27 01:31 UTC (37 minutes ago):

RJCO 270131Z 11002KT 0400 R32/1600D SHSN VV005 M06/M07 Q1030 RMK A3042

Closest aviation forecast (TAF) to Hokkaido University Yubari River Gliderport

Closest forecast is New Chitose Airport, 20.2 nm (37.4 km) S. Retrieved 2021-02-27 00:30 UTC (2 hours ago):

TAF RJCC 262305Z 2700/2806 34006KT 9999 -SHSN FEW005 BKN015 TEMPO 2700/2705 0700 SHSN VV005 TEMPO 2705/2707 2000 -SHSN FEW005 BKN008 BECMG 2712/2715 17011KT